sensor_id;sensor_type;location;lat;lon;timestamp;temperature;humidity
15959;DHT22;8078;47.822;9.402;2022-12-10T00:00:39;-0.30;99.90
15959;DHT22;8078;47.822;9.402;2022-12-10T00:03:05;-0.30;99.90
15959;DHT22;8078;47.822;9.402;2022-12-10T00:05:33;-0.30;99.90
15959;DHT22;8078;47.822;9.402;2022-12-10T00:07:58;-0.40;99.90
15959;DHT22;8078;47.822;9.402;2022-12-10T00:10:24;-0.50;99.90
15959;DHT22;8078;47.822;9.402;2022-12-10T00:12:50;-0.50;99.90
15959;DHT22;8078;47.822;9.402;2022-12-10T00:15:15;-0.60;99.90
15959;DHT22;8078;47.822;9.402;2022-12-10T00:17:41;-0.60;99.90
15959;DHT22;8078;47.822;9.402;2022-12-10T00:20:08;-0.60;99.90
15959;DHT22;8078;47.822;9.402;2022-12-10T00:22:34;-0.60;99.90
15959;DHT22;8078;47.822;9.402;2022-12-10T00:25:00;-0.70;99.90
15959;DHT22;8078;47.822;9.402;2022-12-10T00:27:25;-0.70;99.90
15959;DHT22;8078;47.822;9.402;2022-12-10T00:29:51;-0.80;99.90
15959;DHT22;8078;47.822;9.402;2022-12-10T00:32:16;-0.80;99.90
15959;DHT22;8078;47.822;9.402;2022-12-10T00:34:42;-0.80;99.90
15959;DHT22;8078;47.822;9.402;2022-12-10T00:37:07;-0.80;99.90
15959;DHT22;8078;47.822;9.402;2022-12-10T00:39:33;-0.80;99.90
15959;DHT22;8078;47.822;9.402;2022-12-10T00:41:58;-0.80;99.90
15959;DHT22;8078;47.822;9.402;2022-12-10T00:44:24;-0.80;99.90
15959;DHT22;8078;47.822;9.402;2022-12-10T00:46:49;-0.90;99.90
15959;DHT22;8078;47.822;9.402;2022-12-10T00:49:15;-0.90;99.90
15959;DHT22;8078;47.822;9.402;2022-12-10T00:51:40;-0.90;99.90
15959;DHT22;8078;47.822;9.402;2022-12-10T00:54:06;-0.90;99.90
15959;DHT22;8078;47.822;9.402;2022-12-10T00:56:33;-0.90;99.90
15959;DHT22;8078;47.822;9.402;2022-12-10T00:59:00;-0.90;99.90
15959;DHT22;8078;47.822;9.402;2022-12-10T01:01:31;-0.90;99.90
15959;DHT22;8078;47.822;9.402;2022-12-10T01:04:03;-0.90;99.90
15959;DHT22;8078;47.822;9.402;2022-12-10T01:06:32;-0.90;99.90
15959;DHT22;8078;47.822;9.402;2022-12-10T01:09:00;-0.70;99.90
15959;DHT22;8078;47.822;9.402;2022-12-10T01:11:30;-0.70;99.90
15959;DHT22;8078;47.822;9.402;2022-12-10T01:13:56;-0.80;99.90
15959;DHT22;8078;47.822;9.402;2022-12-10T01:16:22;-0.80;99.90
15959;DHT22;8078;47.822;9.402;2022-12-10T01:18:48;-0.70;99.90
15959;DHT22;8078;47.822;9.402;2022-12-10T01:21:16;-0.60;99.90
15959;DHT22;8078;47.822;9.402;2022-12-10T01:23:45;-0.50;99.90
15959;DHT22;8078;47.822;9.402;2022-12-10T01:26:15;-0.50;99.90
15959;DHT22;8078;47.822;9.402;2022-12-10T01:28:41;-0.60;99.90
15959;DHT22;8078;47.822;9.402;2022-12-10T01:31:10;-0.70;99.90
15959;DHT22;8078;47.822;9.402;2022-12-10T01:33:36;-0.70;99.90
15959;DHT22;8078;47.822;9.402;2022-12-10T01:36:10;-0.60;99.90
15959;DHT22;8078;47.822;9.402;2022-12-10T01:38:37;-0.60;99.90
15959;DHT22;8078;47.822;9.402;2022-12-10T01:41:03;-0.60;99.90
15959;DHT22;8078;47.822;9.402;2022-12-10T01:46:19;-0.80;99.90
15959;DHT22;8078;47.822;9.402;2022-12-10T01:48:45;-0.90;99.90
15959;DHT22;8078;47.822;9.402;2022-12-10T01:51:12;-1.00;99.90
15959;DHT22;8078;47.822;9.402;2022-12-10T01:53:39;-1.10;99.90
15959;DHT22;8078;47.822;9.402;2022-12-10T01:56:05;-1.10;99.90
15959;DHT22;8078;47.822;9.402;2022-12-10T01:58:31;-1.20;99.90
15959;DHT22;8078;47.822;9.402;2022-12-10T02:01:07;-1.20;99.90
15959;DHT22;8078;47.822;9.402;2022-12-10T02:03:45;-1.20;99.90
15959;DHT22;8078;47.822;9.402;2022-12-10T02:09:18;-1.10;99.90
15959;DHT22;8078;47.822;9.402;2022-12-10T02:11:55;-1.20;99.90
15959;DHT22;8078;47.822;9.402;2022-12-10T02:14:43;-1.10;99.90
15959;DHT22;8078;47.822;9.402;2022-12-10T02:17:20;-1.10;99.90
15959;DHT22;8078;47.822;9.402;2022-12-10T02:22:23;-1.10;99.90
15959;DHT22;8078;47.822;9.402;2022-12-10T02:24:51;-1.10;99.90
15959;DHT22;8078;47.822;9.402;2022-12-10T02:27:28;-1.10;99.90
15959;DHT22;8078;47.822;9.402;2022-12-10T02:29:55;-1.10;99.90
15959;DHT22;8078;47.822;9.402;2022-12-10T02:32:31;-1.10;99.90
15959;DHT22;8078;47.822;9.402;2022-12-10T02:35:00;-1.00;99.90
15959;DHT22;8078;47.822;9.402;2022-12-10T02:37:31;-1.00;99.90
15959;DHT22;8078;47.822;9.402;2022-12-10T02:39:59;-1.00;99.90
15959;DHT22;8078;47.822;9.402;2022-12-10T02:42:28;-1.00;99.90
15959;DHT22;8078;47.822;9.402;2022-12-10T02:44:56;-1.00;99.90
15959;DHT22;8078;47.822;9.402;2022-12-10T02:47:22;-1.00;99.90
15959;DHT22;8078;47.822;9.402;2022-12-10T02:49:51;-1.00;99.90
15959;DHT22;8078;47.822;9.402;2022-12-10T02:52:19;-1.00;99.90
15959;DHT22;8078;47.822;9.402;2022-12-10T02:54:47;-1.00;99.90
15959;DHT22;8078;47.822;9.402;2022-12-10T03:08:32;-1.00;99.90
15959;DHT22;8078;47.822;9.402;2022-12-10T03:13:42;-1.10;99.90
15959;DHT22;8078;47.822;9.402;2022-12-10T03:16:09;-1.10;99.90
15959;DHT22;8078;47.822;9.402;2022-12-10T03:18:36;-1.00;99.90
15959;DHT22;8078;47.822;9.402;2022-12-10T03:21:05;-1.10;99.90
15959;DHT22;8078;47.822;9.402;2022-12-10T03:23:34;-1.10;99.90
15959;DHT22;8078;47.822;9.402;2022-12-10T03:26:00;-1.10;99.90
15959;DHT22;8078;47.822;9.402;2022-12-10T03:28:27;-1.10;99.90
15959;DHT22;8078;47.822;9.402;2022-12-10T03:30:55;-1.10;99.90
15959;DHT22;8078;47.822;9.402;2022-12-10T03:33:21;-1.10;99.90
15959;DHT22;8078;47.822;9.402;2022-12-10T03:35:47;-1.10;99.90
15959;DHT22;8078;47.822;9.402;2022-12-10T03:38:14;-1.10;99.90
15959;DHT22;8078;47.822;9.402;2022-12-10T03:40:40;-1.00;99.90
15959;DHT22;8078;47.822;9.402;2022-12-10T03:43:05;-1.00;99.90
15959;DHT22;8078;47.822;9.402;2022-12-10T03:45:31;-1.00;99.90
15959;DHT22;8078;47.822;9.402;2022-12-10T03:47:56;-1.00;99.90
15959;DHT22;8078;47.822;9.402;2022-12-10T03:50:22;-1.00;99.90
15959;DHT22;8078;47.822;9.402;2022-12-10T03:52:47;-0.90;99.90
15959;DHT22;8078;47.822;9.402;2022-12-10T03:55:13;-1.00;99.90
15959;DHT22;8078;47.822;9.402;2022-12-10T03:57:39;-1.00;99.90
15959;DHT22;8078;47.822;9.402;2022-12-10T04:00:06;-1.00;99.90
15959;DHT22;8078;47.822;9.402;2022-12-10T04:02:32;-1.00;99.90
15959;DHT22;8078;47.822;9.402;2022-12-10T04:04:58;-1.10;99.90
15959;DHT22;8078;47.822;9.402;2022-12-10T04:07:23;-1.00;99.90
15959;DHT22;8078;47.822;9.402;2022-12-10T04:09:49;-0.90;99.90
15959;DHT22;8078;47.822;9.402;2022-12-10T04:12:14;-0.90;99.90
15959;DHT22;8078;47.822;9.402;2022-12-10T04:14:40;-0.90;99.90
15959;DHT22;8078;47.822;9.402;2022-12-10T04:17:24;-0.90;99.90
15959;DHT22;8078;47.822;9.402;2022-12-10T04:19:49;-0.90;99.90
15959;DHT22;8078;47.822;9.402;2022-12-10T04:22:15;-0.90;99.90
15959;DHT22;8078;47.822;9.402;2022-12-10T04:24:59;-1.00;99.90
15959;DHT22;8078;47.822;9.402;2022-12-10T04:27:43;-1.00;99.90
15959;DHT22;8078;47.822;9.402;2022-12-10T04:30:10;-1.00;99.90
15959;DHT22;8078;47.822;9.402;2022-12-10T04:32:36;-1.10;99.90
15959;DHT22;8078;47.822;9.402;2022-12-10T04:35:02;-1.10;99.90
15959;DHT22;8078;47.822;9.402;2022-12-10T04:37:28;-1.10;99.90
15959;DHT22;8078;47.822;9.402;2022-12-10T04:39:54;-1.10;99.90
15959;DHT22;8078;47.822;9.402;2022-12-10T04:42:21;-1.10;99.90
15959;DHT22;8078;47.822;9.402;2022-12-10T04:44:47;-1.00;99.90
15959;DHT22;8078;47.822;9.402;2022-12-10T04:47:12;-1.10;99.90
15959;DHT22;8078;47.822;9.402;2022-12-10T04:49:38;-1.10;99.90
15959;DHT22;8078;47.822;9.402;2022-12-10T04:52:05;-1.10;99.90
15959;DHT22;8078;47.822;9.402;2022-12-10T04:54:31;-1.00;99.90
15959;DHT22;8078;47.822;9.402;2022-12-10T04:56:57;-1.00;99.90
15959;DHT22;8078;47.822;9.402;2022-12-10T04:59:22;-1.00;99.90
15959;DHT22;8078;47.822;9.402;2022-12-10T05:01:48;-1.10;99.90
15959;DHT22;8078;47.822;9.402;2022-12-10T05:04:16;-1.10;99.90
15959;DHT22;8078;47.822;9.402;2022-12-10T05:06:43;-1.00;99.90
15959;DHT22;8078;47.822;9.402;2022-12-10T05:09:10;-1.10;99.90
15959;DHT22;8078;47.822;9.402;2022-12-10T05:11:37;-1.10;99.90
15959;DHT22;8078;47.822;9.402;2022-12-10T05:14:02;-1.00;99.90
15959;DHT22;8078;47.822;9.402;2022-12-10T05:16:30;-1.10;99.90
15959;DHT22;8078;47.822;9.402;2022-12-10T05:18:57;-1.00;99.90
15959;DHT22;8078;47.822;9.402;2022-12-10T05:21:25;-1.10;99.90
15959;DHT22;8078;47.822;9.402;2022-12-10T05:24:10;-1.10;99.90
15959;DHT22;8078;47.822;9.402;2022-12-10T05:26:36;-1.10;99.90
15959;DHT22;8078;47.822;9.402;2022-12-10T05:29:02;-1.20;99.90
15959;DHT22;8078;47.822;9.402;2022-12-10T05:31:29;-1.20;99.90
15959;DHT22;8078;47.822;9.402;2022-12-10T05:33:55;-1.20;99.90
15959;DHT22;8078;47.822;9.402;2022-12-10T05:36:24;-1.20;99.90
15959;DHT22;8078;47.822;9.402;2022-12-10T05:38:50;-1.20;99.90
15959;DHT22;8078;47.822;9.402;2022-12-10T05:41:28;-1.20;99.90
15959;DHT22;8078;47.822;9.402;2022-12-10T05:43:55;-1.10;99.90
15959;DHT22;8078;47.822;9.402;2022-12-10T05:46:29;-1.10;99.90
15959;DHT22;8078;47.822;9.402;2022-12-10T05:48:55;-1.20;99.90
15959;DHT22;8078;47.822;9.402;2022-12-10T05:51:26;-1.20;99.90
15959;DHT22;8078;47.822;9.402;2022-12-10T05:53:53;-1.10;99.90
15959;DHT22;8078;47.822;9.402;2022-12-10T05:56:21;-1.20;99.90
15959;DHT22;8078;47.822;9.402;2022-12-10T05:58:48;-1.20;99.90
15959;DHT22;8078;47.822;9.402;2022-12-10T06:01:17;-1.20;99.90
15959;DHT22;8078;47.822;9.402;2022-12-10T06:03:43;-1.20;99.90
15959;DHT22;8078;47.822;9.402;2022-12-10T06:06:09;-1.20;99.90
15959;DHT22;8078;47.822;9.402;2022-12-10T06:08:35;-1.20;99.90
15959;DHT22;8078;47.822;9.402;2022-12-10T06:11:06;-1.20;99.90
15959;DHT22;8078;47.822;9.402;2022-12-10T06:13:33;-1.20;99.90
15959;DHT22;8078;47.822;9.402;2022-12-10T06:15:58;-1.10;99.90
15959;DHT22;8078;47.822;9.402;2022-12-10T06:18:24;-1.10;99.90
15959;DHT22;8078;47.822;9.402;2022-12-10T06:20:50;-1.10;99.90
15959;DHT22;8078;47.822;9.402;2022-12-10T06:23:15;-1.20;99.90
15959;DHT22;8078;47.822;9.402;2022-12-10T06:25:41;-1.20;99.90
15959;DHT22;8078;47.822;9.402;2022-12-10T06:28:07;-1.20;99.90
15959;DHT22;8078;47.822;9.402;2022-12-10T06:30:34;-1.10;99.90
15959;DHT22;8078;47.822;9.402;2022-12-10T06:33:00;-1.10;99.90
15959;DHT22;8078;47.822;9.402;2022-12-10T06:35:25;-1.10;99.90
15959;DHT22;8078;47.822;9.402;2022-12-10T06:37:51;-1.10;99.90
15959;DHT22;8078;47.822;9.402;2022-12-10T06:40:17;-1.20;99.90
15959;DHT22;8078;47.822;9.402;2022-12-10T06:42:43;-1.20;99.90
15959;DHT22;8078;47.822;9.402;2022-12-10T06:45:09;-1.20;99.90
15959;DHT22;8078;47.822;9.402;2022-12-10T06:47:35;-1.20;99.90
15959;DHT22;8078;47.822;9.402;2022-12-10T06:50:00;-1.10;99.90
15959;DHT22;8078;47.822;9.402;2022-12-10T06:52:26;-1.20;99.90
15959;DHT22;8078;47.822;9.402;2022-12-10T06:54:51;-1.20;99.90
15959;DHT22;8078;47.822;9.402;2022-12-10T06:57:19;-1.20;99.90
15959;DHT22;8078;47.822;9.402;2022-12-10T06:59:44;-1.20;99.90
15959;DHT22;8078;47.822;9.402;2022-12-10T07:02:10;-1.30;99.90
15959;DHT22;8078;47.822;9.402;2022-12-10T07:04:36;-1.30;99.90
15959;DHT22;8078;47.822;9.402;2022-12-10T07:07:01;-1.30;99.90
15959;DHT22;8078;47.822;9.402;2022-12-10T07:09:27;-1.30;99.90
15959;DHT22;8078;47.822;9.402;2022-12-10T07:11:53;-1.30;99.90
15959;DHT22;8078;47.822;9.402;2022-12-10T07:14:18;-1.30;99.90
15959;DHT22;8078;47.822;9.402;2022-12-10T07:16:44;-1.30;99.90
15959;DHT22;8078;47.822;9.402;2022-12-10T07:19:11;-1.30;99.90
15959;DHT22;8078;47.822;9.402;2022-12-10T07:21:40;-1.30;99.90
15959;DHT22;8078;47.822;9.402;2022-12-10T07:24:09;-1.30;99.90
15959;DHT22;8078;47.822;9.402;2022-12-10T07:26:38;-1.30;99.90
15959;DHT22;8078;47.822;9.402;2022-12-10T07:29:05;-1.30;99.90
15959;DHT22;8078;47.822;9.402;2022-12-10T07:31:31;-1.30;99.90
15959;DHT22;8078;47.822;9.402;2022-12-10T07:33:58;-1.30;99.90
15959;DHT22;8078;47.822;9.402;2022-12-10T07:36:24;-1.30;99.90
15959;DHT22;8078;47.822;9.402;2022-12-10T07:38:51;-1.30;99.90
15959;DHT22;8078;47.822;9.402;2022-12-10T07:41:18;-1.30;99.90
15959;DHT22;8078;47.822;9.402;2022-12-10T07:43:44;-1.30;99.90
15959;DHT22;8078;47.822;9.402;2022-12-10T07:46:30;-1.30;99.90
15959;DHT22;8078;47.822;9.402;2022-12-10T07:48:58;-1.30;99.90
15959;DHT22;8078;47.822;9.402;2022-12-10T07:51:24;-1.30;99.90
15959;DHT22;8078;47.822;9.402;2022-12-10T07:53:54;-1.30;99.90
15959;DHT22;8078;47.822;9.402;2022-12-10T07:56:20;-1.30;99.90
15959;DHT22;8078;47.822;9.402;2022-12-10T07:58:46;-1.30;99.90
15959;DHT22;8078;47.822;9.402;2022-12-10T08:01:17;-1.30;99.90
15959;DHT22;8078;47.822;9.402;2022-12-10T08:03:44;-1.30;99.90
15959;DHT22;8078;47.822;9.402;2022-12-10T08:06:12;-1.30;99.90
15959;DHT22;8078;47.822;9.402;2022-12-10T08:08:38;-1.30;99.90
15959;DHT22;8078;47.822;9.402;2022-12-10T08:11:05;-1.30;99.90
15959;DHT22;8078;47.822;9.402;2022-12-10T08:13:32;-1.30;99.90
15959;DHT22;8078;47.822;9.402;2022-12-10T08:16:19;-1.20;99.90
15959;DHT22;8078;47.822;9.402;2022-12-10T08:18:45;-1.20;99.90
15959;DHT22;8078;47.822;9.402;2022-12-10T08:21:13;-1.20;99.90
15959;DHT22;8078;47.822;9.402;2022-12-10T08:23:40;-1.20;99.90
15959;DHT22;8078;47.822;9.402;2022-12-10T08:26:08;-1.20;99.90
15959;DHT22;8078;47.822;9.402;2022-12-10T08:28:34;-1.20;99.90
15959;DHT22;8078;47.822;9.402;2022-12-10T08:31:00;-1.20;99.90
15959;DHT22;8078;47.822;9.402;2022-12-10T08:33:26;-1.20;99.90
15959;DHT22;8078;47.822;9.402;2022-12-10T08:35:51;-1.20;99.90
15959;DHT22;8078;47.822;9.402;2022-12-10T08:38:17;-1.20;99.90
15959;DHT22;8078;47.822;9.402;2022-12-10T08:40:43;-1.20;99.90
15959;DHT22;8078;47.822;9.402;2022-12-10T08:43:09;-1.20;99.90
15959;DHT22;8078;47.822;9.402;2022-12-10T08:45:35;-1.20;99.90
15959;DHT22;8078;47.822;9.402;2022-12-10T08:48:01;-1.20;99.90
15959;DHT22;8078;47.822;9.402;2022-12-10T08:50:28;-1.20;99.90
15959;DHT22;8078;47.822;9.402;2022-12-10T08:52:53;-1.10;99.90
15959;DHT22;8078;47.822;9.402;2022-12-10T08:55:19;-1.10;99.90
15959;DHT22;8078;47.822;9.402;2022-12-10T08:57:44;-1.10;99.90
15959;DHT22;8078;47.822;9.402;2022-12-10T09:00:11;-1.20;99.90
15959;DHT22;8078;47.822;9.402;2022-12-10T09:02:38;-1.20;99.90
15959;DHT22;8078;47.822;9.402;2022-12-10T09:05:04;-1.10;99.90
15959;DHT22;8078;47.822;9.402;2022-12-10T09:07:29;-1.10;99.90
15959;DHT22;8078;47.822;9.402;2022-12-10T09:09:55;-1.20;99.90
15959;DHT22;8078;47.822;9.402;2022-12-10T09:12:20;-1.20;99.90
15959;DHT22;8078;47.822;9.402;2022-12-10T09:14:46;-1.20;99.90
15959;DHT22;8078;47.822;9.402;2022-12-10T09:17:11;-1.30;99.90
15959;DHT22;8078;47.822;9.402;2022-12-10T09:19:37;-1.30;99.90
15959;DHT22;8078;47.822;9.402;2022-12-10T09:22:02;-1.30;99.90
15959;DHT22;8078;47.822;9.402;2022-12-10T09:24:28;-1.30;99.90
15959;DHT22;8078;47.822;9.402;2022-12-10T09:26:53;-1.20;99.90
15959;DHT22;8078;47.822;9.402;2022-12-10T09:29:19;-1.20;99.90
15959;DHT22;8078;47.822;9.402;2022-12-10T09:31:45;-1.20;99.90
15959;DHT22;8078;47.822;9.402;2022-12-10T09:34:14;-1.20;99.90
15959;DHT22;8078;47.822;9.402;2022-12-10T09:36:40;-1.20;99.90
15959;DHT22;8078;47.822;9.402;2022-12-10T09:39:05;-1.20;99.90
15959;DHT22;8078;47.822;9.402;2022-12-10T09:41:36;-1.20;99.90
15959;DHT22;8078;47.822;9.402;2022-12-10T09:44:31;-1.20;99.90
15959;DHT22;8078;47.822;9.402;2022-12-10T09:47:00;-1.20;99.90
15959;DHT22;8078;47.822;9.402;2022-12-10T09:51:55;-1.10;99.90
15959;DHT22;8078;47.822;9.402;2022-12-10T09:56:53;-1.10;99.90
15959;DHT22;8078;47.822;9.402;2022-12-10T09:59:24;-1.10;99.90
15959;DHT22;8078;47.822;9.402;2022-12-10T10:02:02;-1.00;99.90
15959;DHT22;8078;47.822;9.402;2022-12-10T10:04:31;-1.00;99.90
15959;DHT22;8078;47.822;9.402;2022-12-10T10:06:56;-1.10;99.90
15959;DHT22;8078;47.822;9.402;2022-12-10T10:09:22;-1.10;99.90
15959;DHT22;8078;47.822;9.402;2022-12-10T10:11:48;-1.10;99.90
15959;DHT22;8078;47.822;9.402;2022-12-10T10:14:22;-1.00;99.90
15959;DHT22;8078;47.822;9.402;2022-12-10T10:16:57;-1.00;99.90
15959;DHT22;8078;47.822;9.402;2022-12-10T10:19:31;-1.00;99.90
15959;DHT22;8078;47.822;9.402;2022-12-10T10:22:00;-1.00;99.90
15959;DHT22;8078;47.822;9.402;2022-12-10T10:24:34;-1.00;99.90
15959;DHT22;8078;47.822;9.402;2022-12-10T10:27:15;-1.10;99.90
15959;DHT22;8078;47.822;9.402;2022-12-10T10:29:45;-1.00;99.90
15959;DHT22;8078;47.822;9.402;2022-12-10T10:32:21;-0.90;99.90
15959;DHT22;8078;47.822;9.402;2022-12-10T10:34:53;-0.90;99.90
15959;DHT22;8078;47.822;9.402;2022-12-10T10:39:54;-1.00;99.90
15959;DHT22;8078;47.822;9.402;2022-12-10T10:42:39;-1.10;99.90
15959;DHT22;8078;47.822;9.402;2022-12-10T10:45:35;-1.20;99.90
15959;DHT22;8078;47.822;9.402;2022-12-10T10:48:17;-1.20;99.90
15959;DHT22;8078;47.822;9.402;2022-12-10T10:50:55;-1.20;99.90
15959;DHT22;8078;47.822;9.402;2022-12-10T10:53:40;-1.10;99.90
15959;DHT22;8078;47.822;9.402;2022-12-10T10:56:15;-1.10;99.90
15959;DHT22;8078;47.822;9.402;2022-12-10T10:59:02;-1.20;99.90
15959;DHT22;8078;47.822;9.402;2022-12-10T11:01:49;-1.30;99.90
15959;DHT22;8078;47.822;9.402;2022-12-10T11:04:17;-1.20;99.90
15959;DHT22;8078;47.822;9.402;2022-12-10T11:06:44;-1.20;99.90
15959;DHT22;8078;47.822;9.402;2022-12-10T11:09:20;-1.30;99.90
15959;DHT22;8078;47.822;9.402;2022-12-10T11:12:00;-1.30;99.90
15959;DHT22;8078;47.822;9.402;2022-12-10T11:14:30;-1.40;99.90
15959;DHT22;8078;47.822;9.402;2022-12-10T11:20:16;-1.50;99.90
15959;DHT22;8078;47.822;9.402;2022-12-10T11:22:53;-1.40;99.90
15959;DHT22;8078;47.822;9.402;2022-12-10T11:25:41;-1.40;99.90
15959;DHT22;8078;47.822;9.402;2022-12-10T11:30:48;-1.40;99.90
15959;DHT22;8078;47.822;9.402;2022-12-10T11:33:32;-1.40;99.90
15959;DHT22;8078;47.822;9.402;2022-12-10T11:44:01;-1.30;99.90
15959;DHT22;8078;47.822;9.402;2022-12-10T11:49:25;-1.30;99.90
15959;DHT22;8078;47.822;9.402;2022-12-10T11:57:40;-1.30;99.90
15959;DHT22;8078;47.822;9.402;2022-12-10T12:03:05;-1.20;99.90
15959;DHT22;8078;47.822;9.402;2022-12-10T12:14:10;-0.90;99.90
15959;DHT22;8078;47.822;9.402;2022-12-10T12:16:56;-0.80;99.90
15959;DHT22;8078;47.822;9.402;2022-12-10T12:19:43;-0.80;99.90
15959;DHT22;8078;47.822;9.402;2022-12-10T12:22:34;-0.70;99.90
15959;DHT22;8078;47.822;9.402;2022-12-10T12:25:21;-0.90;99.90
15959;DHT22;8078;47.822;9.402;2022-12-10T12:27:52;-1.30;99.90
15959;DHT22;8078;47.822;9.402;2022-12-10T12:30:20;-1.50;99.90
15959;DHT22;8078;47.822;9.402;2022-12-10T12:35:48;-1.70;99.90
15959;DHT22;8078;47.822;9.402;2022-12-10T12:38:27;-1.80;99.90
15959;DHT22;8078;47.822;9.402;2022-12-10T12:41:16;-1.80;99.90
15959;DHT22;8078;47.822;9.402;2022-12-10T12:44:09;-1.70;99.90
15959;DHT22;8078;47.822;9.402;2022-12-10T12:46:48;-1.60;99.90
15959;DHT22;8078;47.822;9.402;2022-12-10T12:49:29;-1.60;99.90
15959;DHT22;8078;47.822;9.402;2022-12-10T12:52:18;-1.50;99.90
15959;DHT22;8078;47.822;9.402;2022-12-10T12:54:46;-1.40;99.90
15959;DHT22;8078;47.822;9.402;2022-12-10T12:57:28;-1.40;99.90
15959;DHT22;8078;47.822;9.402;2022-12-10T13:00:05;-1.40;99.90
15959;DHT22;8078;47.822;9.402;2022-12-10T13:03:17;-1.40;99.90
15959;DHT22;8078;47.822;9.402;2022-12-10T13:05:39;-1.30;99.90
15959;DHT22;8078;47.822;9.402;2022-12-10T13:10:59;-1.20;99.90
15959;DHT22;8078;47.822;9.402;2022-12-10T13:15:50;-1.40;99.90
15959;DHT22;8078;47.822;9.402;2022-12-10T13:28:26;-1.80;99.90
15959;DHT22;8078;47.822;9.402;2022-12-10T13:37:17;-1.90;99.90
15959;DHT22;8078;47.822;9.402;2022-12-10T13:42:56;-2.00;99.90
15959;DHT22;8078;47.822;9.402;2022-12-10T13:45:41;-2.10;99.90
15959;DHT22;8078;47.822;9.402;2022-12-10T13:48:23;-2.10;99.90
15959;DHT22;8078;47.822;9.402;2022-12-10T13:53:39;-2.10;99.90
15959;DHT22;8078;47.822;9.402;2022-12-10T14:02:11;-2.20;99.90
15959;DHT22;8078;47.822;9.402;2022-12-10T14:07:30;-2.20;99.90
15959;DHT22;8078;47.822;9.402;2022-12-10T14:09:57;-2.20;99.90
15959;DHT22;8078;47.822;9.402;2022-12-10T14:12:29;-2.20;99.90
15959;DHT22;8078;47.822;9.402;2022-12-10T14:15:04;-2.20;99.90
15959;DHT22;8078;47.822;9.402;2022-12-10T14:17:33;-2.20;99.90
15959;DHT22;8078;47.822;9.402;2022-12-10T14:20:00;-2.20;99.90
15959;DHT22;8078;47.822;9.402;2022-12-10T14:23:22;-2.20;99.90
15959;DHT22;8078;47.822;9.402;2022-12-10T14:25:46;-2.10;99.90
15959;DHT22;8078;47.822;9.402;2022-12-10T14:28:14;-2.10;99.90
15959;DHT22;8078;47.822;9.402;2022-12-10T14:30:48;-2.10;99.90
15959;DHT22;8078;47.822;9.402;2022-12-10T14:33:19;-2.10;99.90
15959;DHT22;8078;47.822;9.402;2022-12-10T14:35:47;-2.20;99.90
15959;DHT22;8078;47.822;9.402;2022-12-10T14:38:34;-2.10;99.90
15959;DHT22;8078;47.822;9.402;2022-12-10T14:41:01;-2.20;99.90
15959;DHT22;8078;47.822;9.402;2022-12-10T14:43:35;-2.10;99.90
15959;DHT22;8078;47.822;9.402;2022-12-10T14:46:04;-2.20;99.90
15959;DHT22;8078;47.822;9.402;2022-12-10T14:48:30;-2.20;99.90
15959;DHT22;8078;47.822;9.402;2022-12-10T14:51:02;-2.20;99.90
15959;DHT22;8078;47.822;9.402;2022-12-10T14:53:28;-2.20;99.90
15959;DHT22;8078;47.822;9.402;2022-12-10T14:55:57;-2.20;99.90
15959;DHT22;8078;47.822;9.402;2022-12-10T14:58:37;-2.20;99.90
15959;DHT22;8078;47.822;9.402;2022-12-10T15:01:04;-2.20;99.90
15959;DHT22;8078;47.822;9.402;2022-12-10T15:03:34;-2.30;99.90
15959;DHT22;8078;47.822;9.402;2022-12-10T15:06:05;-2.30;99.90
15959;DHT22;8078;47.822;9.402;2022-12-10T15:08:32;-2.30;99.90
15959;DHT22;8078;47.822;9.402;2022-12-10T15:11:00;-2.30;99.90
15959;DHT22;8078;47.822;9.402;2022-12-10T15:13:44;-2.30;99.90
15959;DHT22;8078;47.822;9.402;2022-12-10T15:16:20;-2.30;99.90
15959;DHT22;8078;47.822;9.402;2022-12-10T15:18:52;-2.30;99.90
15959;DHT22;8078;47.822;9.402;2022-12-10T15:21:22;-2.30;99.90
15959;DHT22;8078;47.822;9.402;2022-12-10T15:23:48;-2.40;99.90
15959;DHT22;8078;47.822;9.402;2022-12-10T15:26:22;-2.40;99.90
15959;DHT22;8078;47.822;9.402;2022-12-10T15:28:53;-2.40;99.90
15959;DHT22;8078;47.822;9.402;2022-12-10T15:31:38;-2.40;99.90
15959;DHT22;8078;47.822;9.402;2022-12-10T15:34:12;-2.40;99.90
15959;DHT22;8078;47.822;9.402;2022-12-10T15:36:53;-2.50;99.90
15959;DHT22;8078;47.822;9.402;2022-12-10T15:39:28;-2.50;99.90
15959;DHT22;8078;47.822;9.402;2022-12-10T15:41:55;-2.60;99.90
15959;DHT22;8078;47.822;9.402;2022-12-10T15:47:04;-2.60;99.90
15959;DHT22;8078;47.822;9.402;2022-12-10T15:49:34;-2.60;99.90
15959;DHT22;8078;47.822;9.402;2022-12-10T15:51:59;-2.60;99.90
15959;DHT22;8078;47.822;9.402;2022-12-10T15:54:38;-2.60;99.90
15959;DHT22;8078;47.822;9.402;2022-12-10T15:59:38;-2.60;99.90
15959;DHT22;8078;47.822;9.402;2022-12-10T16:04:53;-2.70;99.90
15959;DHT22;8078;47.822;9.402;2022-12-10T16:07:19;-2.60;99.90
15959;DHT22;8078;47.822;9.402;2022-12-10T16:09:45;-2.60;99.90
15959;DHT22;8078;47.822;9.402;2022-12-10T16:12:12;-2.60;99.90
15959;DHT22;8078;47.822;9.402;2022-12-10T16:14:46;-2.60;99.90
15959;DHT22;8078;47.822;9.402;2022-12-10T16:17:12;-2.60;99.90
15959;DHT22;8078;47.822;9.402;2022-12-10T16:19:38;-2.70;99.90
15959;DHT22;8078;47.822;9.402;2022-12-10T16:22:04;-2.80;99.90
15959;DHT22;8078;47.822;9.402;2022-12-10T16:24:30;-2.70;99.90
15959;DHT22;8078;47.822;9.402;2022-12-10T16:26:56;-2.80;99.90
15959;DHT22;8078;47.822;9.402;2022-12-10T16:29:21;-2.80;99.90
15959;DHT22;8078;47.822;9.402;2022-12-10T16:31:47;-2.80;99.90
15959;DHT22;8078;47.822;9.402;2022-12-10T16:34:12;-2.70;99.90
15959;DHT22;8078;47.822;9.402;2022-12-10T16:36:38;-2.60;99.90
15959;DHT22;8078;47.822;9.402;2022-12-10T16:39:03;-2.60;99.90
15959;DHT22;8078;47.822;9.402;2022-12-10T16:41:30;-2.50;99.90
15959;DHT22;8078;47.822;9.402;2022-12-10T16:43:56;-2.50;99.90
15959;DHT22;8078;47.822;9.402;2022-12-10T16:46:21;-2.50;99.90
15959;DHT22;8078;47.822;9.402;2022-12-10T16:48:47;-2.50;99.90
15959;DHT22;8078;47.822;9.402;2022-12-10T16:51:20;-2.50;99.90
15959;DHT22;8078;47.822;9.402;2022-12-10T16:53:47;-2.60;99.90
15959;DHT22;8078;47.822;9.402;2022-12-10T16:56:16;-2.70;99.90
15959;DHT22;8078;47.822;9.402;2022-12-10T16:58:43;-2.70;99.90
15959;DHT22;8078;47.822;9.402;2022-12-10T17:01:28;-2.60;99.90
15959;DHT22;8078;47.822;9.402;2022-12-10T17:03:57;-2.50;99.90
15959;DHT22;8078;47.822;9.402;2022-12-10T17:06:23;-2.50;99.90
15959;DHT22;8078;47.822;9.402;2022-12-10T17:08:49;-2.50;99.90
15959;DHT22;8078;47.822;9.402;2022-12-10T17:11:23;-2.50;99.90
15959;DHT22;8078;47.822;9.402;2022-12-10T17:14:29;-2.40;99.90
15959;DHT22;8078;47.822;9.402;2022-12-10T17:16:57;-2.40;99.90
15959;DHT22;8078;47.822;9.402;2022-12-10T17:19:26;-2.40;99.90
15959;DHT22;8078;47.822;9.402;2022-12-10T17:21:52;-2.40;99.90
15959;DHT22;8078;47.822;9.402;2022-12-10T17:24:18;-2.40;99.90
15959;DHT22;8078;47.822;9.402;2022-12-10T17:26:46;-2.40;99.90
15959;DHT22;8078;47.822;9.402;2022-12-10T17:29:16;-2.40;99.90
15959;DHT22;8078;47.822;9.402;2022-12-10T17:31:43;-2.50;99.90
15959;DHT22;8078;47.822;9.402;2022-12-10T17:34:11;-2.50;99.90
15959;DHT22;8078;47.822;9.402;2022-12-10T17:36:38;-2.40;99.90
15959;DHT22;8078;47.822;9.402;2022-12-10T17:39:03;-2.50;99.90
15959;DHT22;8078;47.822;9.402;2022-12-10T17:41:29;-2.40;99.90
15959;DHT22;8078;47.822;9.402;2022-12-10T17:43:55;-2.40;99.90
15959;DHT22;8078;47.822;9.402;2022-12-10T17:46:23;-2.40;99.90
15959;DHT22;8078;47.822;9.402;2022-12-10T17:48:49;-2.40;99.90
15959;DHT22;8078;47.822;9.402;2022-12-10T17:51:15;-2.40;99.90